Time;durP1;ratioP1;P1;durP2;ratioP2;P2;SDS_P1;SDS_P2;PMS_P1;PMS_P2;Temp;Humidity;BMP_temperature;BMP_pressure;BME280_temperature;BME280_humidity;BME280_pressure;Samples;Min_cycle;Max_cycle;Signal;HPM_P1;HPM_P2
2021/06/26 00:01:45;;;;;;;17.23;9.57;;;20.30;99.90;;;;;;5044786;28;20466;-73
2021/06/26 00:04:13;;;;;;;14.03;9.30;;;20.30;99.90;;;;;;5054099;28;20973;-73
2021/06/26 00:06:40;;;;;;;13.10;8.77;;;20.40;99.90;;;;;;5049484;28;20880;-73
2021/06/26 00:09:07;;;;;;;12.20;9.60;;;20.30;99.90;;;;;;5043517;28;20966;-73
2021/06/26 00:11:35;;;;;;;17.03;9.30;;;20.30;99.90;;;;;;5051545;28;20491;-74
2021/06/26 00:14:03;;;;;;;11.97;8.40;;;20.30;99.90;;;;;;5039652;28;21134;-73
2021/06/26 00:16:30;;;;;;;14.80;9.30;;;20.30;99.90;;;;;;5045604;28;20916;-74
2021/06/26 00:18:57;;;;;;;13.10;9.40;;;20.20;99.90;;;;;;5052136;28;20820;-72
2021/06/26 00:21:24;;;;;;;18.30;7.90;;;20.30;99.90;;;;;;5049471;28;20469;-73
2021/06/26 00:23:51;;;;;;;13.17;9.47;;;20.20;99.90;;;;;;5047698;28;21014;-74
2021/06/26 00:26:18;;;;;;;11.87;9.23;;;20.10;99.90;;;;;;5049170;28;20483;-74
2021/06/26 00:28:47;;;;;;;11.57;8.10;;;20.10;99.90;;;;;;5047418;28;20850;-73
2021/06/26 00:31:15;;;;;;;10.77;8.03;;;20.00;99.90;;;;;;5047041;28;20499;-74
2021/06/26 00:33:42;;;;;;;10.50;7.37;;;20.00;99.90;;;;;;5053393;28;20458;-73
2021/06/26 00:36:09;;;;;;;13.80;8.53;;;19.90;99.90;;;;;;5051589;28;20883;-74
2021/06/26 00:38:36;;;;;;;11.27;8.03;;;19.90;99.90;;;;;;5051342;28;20488;-73
2021/06/26 00:41:04;;;;;;;13.30;9.17;;;19.80;99.90;;;;;;5049752;28;20460;-73
2021/06/26 00:43:31;;;;;;;13.63;9.07;;;19.80;99.90;;;;;;5043335;28;20494;-71
2021/06/26 00:46:00;;;;;;;16.50;9.77;;;19.80;99.90;;;;;;5057606;28;20880;-73
2021/06/26 00:48:27;;;;;;;13.07;9.33;;;19.80;99.90;;;;;;5051423;28;20553;-72
2021/06/26 00:50:54;;;;;;;12.93;8.50;;;19.70;99.90;;;;;;5052306;28;20573;-73
2021/06/26 00:53:21;;;;;;;13.40;7.93;;;19.70;99.90;;;;;;5053162;28;20534;-73
2021/06/26 00:55:52;;;;;;;12.50;8.67;;;19.60;99.90;;;;;;5056511;28;21007;-74
2021/06/26 00:58:20;;;;;;;18.70;9.67;;;19.40;99.90;;;;;;5052304;28;20505;-72
2021/06/26 01:00:48;;;;;;;13.70;9.53;;;19.40;99.90;;;;;;5046281;28;20471;-72
2021/06/26 01:03:17;;;;;;;11.63;8.50;;;19.30;99.90;;;;;;5046911;28;20454;-73
2021/06/26 01:05:44;;;;;;;11.83;7.30;;;19.00;99.90;;;;;;5043047;28;20530;-73
2021/06/26 01:08:12;;;;;;;13.20;7.60;;;18.90;99.90;;;;;;5054256;28;20944;-72
2021/06/26 01:10:39;;;;;;;13.00;8.03;;;18.80;99.90;;;;;;5050546;28;20574;-74
2021/06/26 01:13:07;;;;;;;13.90;7.93;;;18.80;99.90;;;;;;5053430;28;20529;-72
2021/06/26 01:15:34;;;;;;;15.37;8.53;;;18.80;99.90;;;;;;5047332;28;20925;-73
2021/06/26 01:18:01;;;;;;;11.03;8.00;;;18.70;99.90;;;;;;5053147;28;20457;-74
2021/06/26 01:20:30;;;;;;;12.50;7.90;;;18.70;99.90;;;;;;5043829;28;20551;-73
2021/06/26 01:22:59;;;;;;;15.63;8.00;;;18.60;99.90;;;;;;5058436;28;20480;-71
2021/06/26 01:25:28;;;;;;;10.23;7.60;;;18.40;99.90;;;;;;5056041;28;21132;-73
2021/06/26 01:27:56;;;;;;;13.87;8.20;;;18.40;99.90;;;;;;5051455;28;20475;-73
2021/06/26 01:30:27;;;;;;;14.60;9.13;;;18.40;99.90;;;;;;5050334;28;20607;-73
2021/06/26 01:32:54;;;;;;;13.20;7.73;;;18.20;99.90;;;;;;5047995;28;20521;-72
2021/06/26 01:35:21;;;;;;;14.13;8.57;;;18.20;99.90;;;;;;5050737;28;20527;-73
2021/06/26 01:37:48;;;;;;;14.00;8.90;;;18.10;99.90;;;;;;5056208;28;20459;-72
2021/06/26 01:40:19;;;;;;;13.20;8.13;;;18.00;99.90;;;;;;5049966;28;20583;-73
2021/06/26 01:42:47;;;;;;;17.97;10.30;;;18.00;99.90;;;;;;5056383;28;20470;-74
2021/06/26 01:45:15;;;;;;;11.10;8.00;;;18.00;99.90;;;;;;5050375;28;20533;-71
2021/06/26 01:47:48;;;;;;;15.60;7.90;;;17.60;99.90;;;;;;5050022;28;20456;-74
2021/06/26 01:50:17;;;;;;;11.60;7.27;;;17.40;99.90;;;;;;5048111;28;20930;-74
2021/06/26 01:52:45;;;;;;;12.10;7.40;;;17.50;99.90;;;;;;5053187;28;20492;-72
2021/06/26 01:55:13;;;;;;;16.40;9.30;;;17.60;99.90;;;;;;5051263;28;20543;-73
2021/06/26 01:57:42;;;;;;;13.93;9.20;;;17.60;99.90;;;;;;5052095;28;20442;-73
2021/06/26 02:00:10;;;;;;;14.87;8.30;;;17.50;99.90;;;;;;5047382;28;20479;-75
2021/06/26 02:02:37;;;;;;;15.50;9.10;;;17.50;99.90;;;;;;5048459;28;20498;-73
2021/06/26 02:05:05;;;;;;;11.03;8.83;;;17.40;99.90;;;;;;5051218;28;20440;-74
2021/06/26 02:07:32;;;;;;;13.57;9.87;;;17.40;99.90;;;;;;5046742;28;20466;-72
2021/06/26 02:09:59;;;;;;;14.70;8.77;;;17.40;99.90;;;;;;5050895;28;20514;-73
2021/06/26 02:12:27;;;;;;;14.60;8.33;;;17.40;99.90;;;;;;5054093;28;20554;-74
2021/06/26 02:14:55;;;;;;;13.87;9.60;;;17.40;99.90;;;;;;5045003;28;20573;-71
2021/06/26 02:17:22;;;;;;;14.07;7.23;;;17.40;99.90;;;;;;5048549;28;20483;-73
2021/06/26 02:19:50;;;;;;;10.40;8.23;;;17.20;99.90;;;;;;5047232;28;20482;-73
2021/06/26 02:22:18;;;;;;;11.70;7.70;;;17.00;99.90;;;;;;5047197;28;20555;-72
2021/06/26 02:24:45;;;;;;;13.00;8.03;;;17.00;99.90;;;;;;5044609;28;20478;-73
2021/06/26 02:27:12;;;;;;;13.87;10.17;;;17.00;99.90;;;;;;5048333;28;20984;-72
2021/06/26 02:29:39;;;;;;;12.70;8.07;;;16.90;99.90;;;;;;5045189;28;20558;-74
2021/06/26 02:32:09;;;;;;;23.60;9.83;;;16.80;99.90;;;;;;5046228;28;20880;-72
2021/06/26 02:34:36;;;;;;;11.37;8.37;;;16.90;99.90;;;;;;5042635;28;20494;-74
2021/06/26 02:37:03;;;;;;;15.83;7.90;;;16.90;99.90;;;;;;5047647;28;20898;-74
2021/06/26 02:39:30;;;;;;;12.83;8.90;;;16.90;99.90;;;;;;5045407;28;20483;-73
2021/06/26 02:41:57;;;;;;;11.03;8.33;;;16.80;99.90;;;;;;5039590;28;20463;-74
2021/06/26 02:44:24;;;;;;;14.17;10.67;;;16.80;99.90;;;;;;5051015;28;20573;-73
2021/06/26 02:46:51;;;;;;;12.90;9.83;;;16.80;99.90;;;;;;5046961;28;20466;-71
2021/06/26 02:49:20;;;;;;;18.13;8.70;;;16.90;99.90;;;;;;5052379;28;20535;-74
2021/06/26 02:51:48;;;;;;;12.33;8.77;;;16.90;99.90;;;;;;5047109;28;20912;-74
2021/06/26 02:54:15;;;;;;;14.33;8.30;;;16.90;99.90;;;;;;5043269;28;20450;-74
2021/06/26 02:56:42;;;;;;;16.30;9.37;;;16.90;99.90;;;;;;5045083;28;20535;-73
2021/06/26 02:59:09;;;;;;;17.27;11.03;;;16.90;99.90;;;;;;5046680;28;20495;-74
2021/06/26 03:01:36;;;;;;;15.90;8.70;;;16.80;99.90;;;;;;5046610;28;20487;-74
2021/06/26 03:04:03;;;;;;;13.00;9.03;;;16.80;99.90;;;;;;5060231;28;20490;-74
2021/06/26 03:06:31;;;;;;;10.77;7.47;;;16.60;99.90;;;;;;5043651;28;21535;-73
2021/06/26 03:08:58;;;;;;;14.10;8.60;;;16.40;99.90;;;;;;5045363;28;20536;-74
2021/06/26 03:11:25;;;;;;;9.87;8.73;;;16.30;99.90;;;;;;5052369;28;20463;-73
2021/06/26 03:13:53;;;;;;;15.20;9.23;;;16.30;99.90;;;;;;5053271;28;20562;-74
2021/06/26 03:16:20;;;;;;;14.00;8.70;;;16.40;99.90;;;;;;5044878;28;20482;-73
2021/06/26 03:18:46;;;;;;;13.40;9.70;;;16.40;99.90;;;;;;5050755;28;20571;-72
2021/06/26 03:21:14;;;;;;;16.40;8.63;;;16.50;99.90;;;;;;5048522;28;20495;-72
2021/06/26 03:23:42;;;;;;;14.77;9.30;;;16.60;99.90;;;;;;5056883;28;20475;-74
2021/06/26 03:26:10;;;;;;;13.90;9.33;;;16.60;99.90;;;;;;5059722;28;20451;-74
2021/06/26 03:28:37;;;;;;;14.77;8.87;;;16.60;99.90;;;;;;5045568;28;20554;-71
2021/06/26 03:31:05;;;;;;;13.10;8.73;;;16.50;99.90;;;;;;5037981;28;21167;-73
2021/06/26 03:33:31;;;;;;;12.90;8.83;;;16.30;99.90;;;;;;5046576;28;20470;-73
2021/06/26 03:35:58;;;;;;;14.10;8.03;;;16.30;99.90;;;;;;5049102;28;20483;-73
2021/06/26 03:38:25;;;;;;;17.97;9.50;;;16.30;99.90;;;;;;5043528;28;20471;-73
2021/06/26 03:40:54;;;;;;;18.90;10.97;;;16.50;99.90;;;;;;5048975;28;21020;-73
2021/06/26 03:43:21;;;;;;;20.70;8.90;;;16.50;99.90;;;;;;5043089;28;20468;-73
2021/06/26 03:45:49;;;;;;;13.87;9.03;;;16.50;99.90;;;;;;5048641;28;20546;-74
2021/06/26 03:48:16;;;;;;;12.07;7.93;;;16.60;99.90;;;;;;5041773;28;20458;-73
2021/06/26 03:50:43;;;;;;;10.83;9.00;;;16.60;99.90;;;;;;5046660;28;20515;-71
2021/06/26 03:53:10;;;;;;;18.73;10.40;;;16.60;99.90;;;;;;5040163;28;20455;-71
2021/06/26 03:55:38;;;;;;;17.87;10.00;;;16.60;99.90;;;;;;5041570;28;20573;-73
2021/06/26 03:58:06;;;;;;;17.23;10.10;;;16.60;99.90;;;;;;5040144;28;20560;-73
2021/06/26 04:00:33;;;;;;;17.70;10.43;;;16.70;99.90;;;;;;5044547;28;20570;-73
2021/06/26 04:03:00;;;;;;;22.53;11.23;;;16.70;99.90;;;;;;5044393;28;20538;-73
2021/06/26 04:05:27;;;;;;;11.30;8.70;;;16.70;99.90;;;;;;5044867;28;20546;-73
2021/06/26 04:07:54;;;;;;;14.40;9.50;;;16.70;99.90;;;;;;5048630;28;20499;-74
2021/06/26 04:10:21;;;;;;;14.80;10.17;;;16.70;99.90;;;;;;5056657;28;20475;-74
2021/06/26 04:12:48;;;;;;;14.83;9.63;;;16.80;99.90;;;;;;5061005;28;20492;-73
2021/06/26 04:15:16;;;;;;;12.17;8.83;;;16.80;99.90;;;;;;5047607;28;20525;-72
2021/06/26 04:17:43;;;;;;;9.83;7.27;;;16.80;99.90;;;;;;5057030;28;20535;-73
2021/06/26 04:20:11;;;;;;;21.03;11.77;;;16.80;99.90;;;;;;5057628;28;21032;-73
2021/06/26 04:22:39;;;;;;;15.97;9.00;;;16.80;99.90;;;;;;5048622;28;21005;-72
2021/06/26 04:25:07;;;;;;;14.97;10.17;;;16.90;99.90;;;;;;5055118;28;20457;-71
2021/06/26 04:27:34;;;;;;;20.27;9.50;;;17.00;99.90;;;;;;5044097;28;20459;-73
2021/06/26 04:30:01;;;;;;;18.40;8.17;;;17.10;99.90;;;;;;5054249;28;20521;-73
2021/06/26 04:32:30;;;;;;;12.50;7.30;;;17.10;99.90;;;;;;5055440;28;20464;-71
2021/06/26 04:34:57;;;;;;;16.50;10.07;;;17.30;99.90;;;;;;5047129;28;20538;-73
2021/06/26 04:37:24;;;;;;;15.33;9.70;;;17.30;99.90;;;;;;5042077;28;20696;-73
2021/06/26 04:39:51;;;;;;;14.17;10.37;;;17.20;99.90;;;;;;5050810;28;20487;-72
2021/06/26 04:42:18;;;;;;;13.40;9.47;;;17.10;99.90;;;;;;5050662;28;20454;-73
2021/06/26 04:44:45;;;;;;;16.03;10.30;;;17.10;99.90;;;;;;5050016;28;20974;-72
2021/06/26 04:47:12;;;;;;;13.40;9.17;;;17.30;99.90;;;;;;5046077;28;20448;-72
2021/06/26 04:49:40;;;;;;;17.40;10.67;;;17.50;99.90;;;;;;5038700;28;20488;-72
2021/06/26 04:52:09;;;;;;;16.20;11.10;;;17.60;99.90;;;;;;5045145;28;20486;-72
2021/06/26 04:54:37;;;;;;;18.83;11.70;;;17.80;99.90;;;;;;5055760;28;20482;-73
2021/06/26 04:57:05;;;;;;;22.80;13.33;;;17.80;99.90;;;;;;5045774;28;25863;-72
2021/06/26 04:59:32;;;;;;;16.43;10.80;;;17.90;99.90;;;;;;5043458;28;20486;-73
2021/06/26 05:01:59;;;;;;;19.23;11.77;;;18.10;99.90;;;;;;5046694;28;20544;-73
2021/06/26 05:04:26;;;;;;;16.20;11.37;;;18.10;99.90;;;;;;5055972;28;20471;-73
2021/06/26 05:06:56;;;;;;;18.43;12.07;;;18.30;99.90;;;;;;5049116;28;20547;-72
2021/06/26 05:09:23;;;;;;;21.00;12.47;;;18.50;99.90;;;;;;5053367;28;20480;-73
2021/06/26 05:11:50;;;;;;;17.03;11.83;;;18.60;99.90;;;;;;5061421;28;20459;-72
2021/06/26 05:14:17;;;;;;;17.17;12.37;;;18.80;99.90;;;;;;5061372;28;20505;-73
2021/06/26 05:16:44;;;;;;;17.20;11.10;;;18.90;99.90;;;;;;5055067;28;21173;-73
2021/06/26 05:19:11;;;;;;;24.07;11.97;;;19.00;99.90;;;;;;5049749;28;20483;-73
2021/06/26 05:21:38;;;;;;;17.77;12.63;;;19.10;99.90;;;;;;5045467;28;21327;-73
2021/06/26 05:24:08;;;;;;;20.23;12.70;;;19.20;99.90;;;;;;5049054;28;20472;-71
2021/06/26 05:26:35;;;;;;;18.27;12.77;;;19.30;99.90;;;;;;5047968;28;20526;-73
2021/06/26 05:29:02;;;;;;;18.17;11.10;;;19.40;99.90;;;;;;5048226;28;20472;-74
2021/06/26 05:31:29;;;;;;;20.33;12.53;;;19.50;99.90;;;;;;5057337;28;20600;-73
2021/06/26 05:33:56;;;;;;;24.43;13.40;;;19.90;99.90;;;;;;5056304;28;20443;-73
2021/06/26 05:36:23;;;;;;;20.23;10.80;;;20.30;99.90;;;;;;5061821;28;20545;-73
2021/06/26 05:38:50;;;;;;;19.17;12.80;;;20.50;99.90;;;;;;5064780;28;20880;-74
2021/06/26 05:41:19;;;;;;;18.10;11.30;;;20.70;99.90;;;;;;5050789;28;20581;-73
2021/06/26 05:43:46;;;;;;;21.77;13.53;;;20.60;99.90;;;;;;5049797;28;20537;-75
2021/06/26 05:46:12;;;;;;;16.80;11.70;;;20.60;99.90;;;;;;5048368;28;20478;-73
2021/06/26 05:48:39;;;;;;;18.00;13.10;;;20.70;99.90;;;;;;5050076;28;20964;-73
2021/06/26 05:51:06;;;;;;;20.17;13.67;;;20.80;99.90;;;;;;5054242;28;20509;-74
2021/06/26 05:53:33;;;;;;;20.17;13.93;;;21.00;99.90;;;;;;5046651;28;20501;-73
2021/06/26 05:56:00;;;;;;;24.77;13.83;;;20.90;99.90;;;;;;5054863;28;20566;-73
2021/06/26 05:58:32;;;;;;;21.50;14.27;;;20.70;99.90;;;;;;5050755;28;20470;-72
2021/06/26 06:01:00;;;;;;;26.23;14.00;;;20.70;99.90;;;;;;5050168;28;20459;-73
2021/06/26 06:03:27;;;;;;;26.17;14.67;;;20.90;99.90;;;;;;5049503;28;20540;-72
2021/06/26 06:05:54;;;;;;;21.17;13.70;;;21.20;99.90;;;;;;5053788;28;20827;-73
2021/06/26 06:08:21;;;;;;;20.50;15.57;;;21.50;99.90;;;;;;5058434;28;20479;-72
2021/06/26 06:10:48;;;;;;;22.53;13.83;;;21.70;99.90;;;;;;5044906;28;20477;-73
2021/06/26 06:13:17;;;;;;;21.17;14.83;;;22.20;99.90;;;;;;5044285;28;20443;-73
2021/06/26 06:15:47;;;;;;;22.80;13.33;;;22.50;99.90;;;;;;5045143;28;22422;-72
2021/06/26 06:18:15;;;;;;;17.33;13.50;;;22.40;99.90;;;;;;5047546;28;20487;-73
2021/06/26 06:20:43;;;;;;;21.10;14.17;;;22.60;99.90;;;;;;5043918;28;20566;-72
2021/06/26 06:23:10;;;;;;;19.77;14.40;;;22.50;99.90;;;;;;5049952;28;20535;-73
2021/06/26 06:25:38;;;;;;;21.07;13.20;;;23.00;99.90;;;;;;5054679;28;20873;-73
2021/06/26 06:28:05;;;;;;;18.50;14.83;;;23.60;99.90;;;;;;5046889;28;20480;-74
2021/06/26 06:30:35;;;;;;;26.80;14.00;;;23.50;99.90;;;;;;5042823;28;20510;-74
2021/06/26 06:33:04;;;;;;;22.77;14.43;;;23.50;99.90;;;;;;5048970;28;20462;-74
2021/06/26 06:35:31;;;;;;;22.30;13.43;;;23.20;99.90;;;;;;5047635;28;20462;-74
2021/06/26 06:37:58;;;;;;;19.93;14.83;;;23.30;99.90;;;;;;5035404;28;20600;-74
2021/06/26 06:40:25;;;;;;;19.93;14.77;;;23.60;99.90;;;;;;5042591;28;20866;-74
2021/06/26 06:42:52;;;;;;;23.20;12.80;;;24.10;99.90;;;;;;5043274;28;20960;-73
2021/06/26 06:45:20;;;;;;;19.47;13.40;;;24.20;99.90;;;;;;5042234;28;20491;-72
2021/06/26 06:47:47;;;;;;;16.40;11.57;;;24.50;99.90;;;;;;5044086;28;20447;-74
2021/06/26 06:50:15;;;;;;;18.57;12.00;;;24.30;99.90;;;;;;5042772;28;20515;-73
2021/06/26 06:52:42;;;;;;;25.97;14.70;;;24.20;99.90;;;;;;5062574;28;20497;-73
2021/06/26 06:55:10;;;;;;;18.20;13.57;;;24.00;99.90;;;;;;5056194;28;20563;-73
2021/06/26 06:57:37;;;;;;;16.60;13.43;;;24.30;99.90;;;;;;5056175;28;20537;-72
2021/06/26 07:00:07;;;;;;;19.47;13.00;;;24.30;99.90;;;;;;5053539;28;20510;-73
2021/06/26 07:02:34;;;;;;;16.80;11.57;;;24.20;99.90;;;;;;5052625;28;20879;-73
2021/06/26 07:05:01;;;;;;;17.10;11.97;;;24.40;99.90;;;;;;5053717;28;20524;-74
2021/06/26 07:07:29;;;;;;;15.03;11.43;;;24.90;99.90;;;;;;5047702;28;20796;-73
2021/06/26 07:09:57;;;;;;;14.97;11.83;;;25.30;99.90;;;;;;5057483;28;20942;-73
2021/06/26 07:12:24;;;;;;;18.87;12.17;;;25.20;99.90;;;;;;5050539;28;20564;-71
2021/06/26 07:14:51;;;;;;;19.20;12.90;;;25.30;99.90;;;;;;5048163;28;20543;-73
2021/06/26 07:17:18;;;;;;;18.07;13.80;;;26.00;99.90;;;;;;5055561;28;20595;-72
2021/06/26 07:19:45;;;;;;;18.70;12.63;;;26.10;99.90;;;;;;5059217;28;20466;-72
2021/06/26 07:22:12;;;;;;;16.83;13.40;;;25.60;99.90;;;;;;5055890;28;20488;-73
2021/06/26 07:24:40;;;;;;;19.50;12.50;;;25.80;99.90;;;;;;5050810;28;20451;-73
2021/06/26 07:27:07;;;;;;;16.30;12.60;;;25.70;99.90;;;;;;5057958;28;20542;-72
2021/06/26 07:29:34;;;;;;;18.83;12.83;;;26.00;99.90;;;;;;5054642;28;20567;-73
2021/06/26 07:32:01;;;;;;;15.63;11.50;;;26.00;99.90;;;;;;5056799;28;20888;-73
2021/06/26 07:34:28;;;;;;;14.17;11.90;;;26.40;99.90;;;;;;5050015;28;20535;-73
2021/06/26 07:36:55;;;;;;;17.33;12.80;;;26.50;99.90;;;;;;5054324;28;20486;-74
2021/06/26 07:39:22;;;;;;;15.53;10.97;;;26.30;99.90;;;;;;5052662;28;20507;-73
2021/06/26 07:41:50;;;;;;;13.20;11.80;;;26.60;99.90;;;;;;5063307;28;20456;-75
2021/06/26 07:44:18;;;;;;;15.87;11.77;;;26.50;99.90;;;;;;5061659;28;20487;-74
2021/06/26 07:46:45;;;;;;;18.40;11.90;;;26.60;99.90;;;;;;5048863;28;20455;-73
2021/06/26 07:49:12;;;;;;;13.47;9.87;;;26.80;99.90;;;;;;5049135;28;20554;-73
2021/06/26 07:51:40;;;;;;;16.23;12.30;;;27.30;99.90;;;;;;5049723;28;20545;-73
2021/06/26 07:54:06;;;;;;;15.20;10.27;;;27.40;99.90;;;;;;5051347;28;20473;-75
2021/06/26 07:56:34;;;;;;;15.13;11.57;;;27.60;99.90;;;;;;5052055;28;20545;-73
2021/06/26 07:59:02;;;;;;;14.77;10.70;;;27.90;99.90;;;;;;5059580;28;20474;-72
2021/06/26 08:01:29;;;;;;;13.40;11.80;;;28.60;99.90;;;;;;5049780;28;20952;-72
2021/06/26 08:03:57;;;;;;;16.90;10.87;;;29.10;99.90;;;;;;5055876;28;20440;-72
2021/06/26 08:06:24;;;;;;;16.00;11.83;;;30.20;99.90;;;;;;5052455;28;20530;-73
2021/06/26 08:08:51;;;;;;;14.20;11.13;;;29.60;99.90;;;;;;5055346;28;20507;-73
2021/06/26 08:11:18;;;;;;;12.20;9.83;;;29.70;99.90;;;;;;5048971;28;20463;-74
2021/06/26 08:13:44;;;;;;;16.20;10.90;;;29.80;99.90;;;;;;5051322;28;20871;-73
2021/06/26 08:16:13;;;;;;;12.13;9.87;;;30.10;99.90;;;;;;5051631;28;20997;-73
2021/06/26 08:18:40;;;;;;;14.03;10.30;;;29.80;99.90;;;;;;5053878;28;20454;-72
2021/06/26 08:21:07;;;;;;;15.60;10.07;;;29.70;99.90;;;;;;5056019;28;20787;-72
2021/06/26 08:23:34;;;;;;;11.30;9.93;;;29.80;99.90;;;;;;5063148;28;20462;-73
2021/06/26 08:26:01;;;;;;;16.10;11.33;;;30.30;99.90;;;;;;5055276;28;20559;-73
2021/06/26 08:28:28;;;;;;;12.07;10.20;;;30.80;98.80;;;;;;5062094;28;20866;-73
2021/06/26 08:30:55;;;;;;;14.03;11.10;;;30.20;98.60;;;;;;5058065;28;20505;-74
2021/06/26 08:33:23;;;;;;;11.30;9.87;;;30.10;98.80;;;;;;5066637;28;20450;-73
2021/06/26 08:35:50;;;;;;;12.40;11.10;;;30.30;99.50;;;;;;5058922;28;20509;-73
2021/06/26 08:38:17;;;;;;;10.70;9.60;;;30.40;97.80;;;;;;5054234;28;20490;-74
2021/06/26 08:40:45;;;;;;;15.63;11.03;;;30.50;99.30;;;;;;5064202;28;20569;-74
2021/06/26 08:43:12;;;;;;;11.90;9.63;;;30.70;99.60;;;;;;5057947;28;20451;-74
2021/06/26 08:45:39;;;;;;;12.23;10.93;;;31.30;97.10;;;;;;5060612;28;20451;-73
2021/06/26 08:48:07;;;;;;;12.03;10.20;;;31.40;97.30;;;;;;5056975;28;20475;-73
2021/06/26 08:50:35;;;;;;;13.80;9.80;;;31.20;95.30;;;;;;5055305;28;20578;-73
2021/06/26 08:53:02;;;;;;;11.63;8.70;;;30.70;94.80;;;;;;5059947;28;20474;-73
2021/06/26 08:55:29;;;;;;;10.63;9.20;;;30.20;95.50;;;;;;5043952;28;21942;-73
2021/06/26 08:57:56;;;;;;;11.87;10.67;;;30.60;95.40;;;;;;5062629;28;20662;-73
2021/06/26 09:00:26;;;;;;;11.60;9.53;;;31.30;94.50;;;;;;5061292;28;20585;-73
2021/06/26 09:03:04;;;;;;;11.50;7.47;;;32.00;92.10;;;;;;5062046;28;20497;-74
2021/06/26 09:05:31;;;;;;;9.37;7.47;;;32.70;89.80;;;;;;5055676;28;20483;-74
2021/06/26 09:08:10;;;;;;;8.77;7.87;;;31.80;90.20;;;;;;5052535;28;20948;-73
2021/06/26 09:10:38;;;;;;;12.13;9.10;;;32.00;89.80;;;;;;5057762;28;20475;-73
2021/06/26 09:13:17;;;;;;;9.87;7.30;;;32.20;90.40;;;;;;5057852;28;20446;-74
2021/06/26 09:15:45;;;;;;;9.43;7.23;;;32.20;85.00;;;;;;5060870;28;20431;-73
2021/06/26 09:18:15;;;;;;;7.67;6.93;;;32.30;85.50;;;;;;5064665;28;20514;-74
2021/06/26 09:20:44;;;;;;;8.43;7.63;;;32.20;85.00;;;;;;5054567;28;20829;-74
2021/06/26 09:23:22;;;;;;;8.90;7.90;;;32.90;81.70;;;;;;5058963;28;20457;-74
2021/06/26 09:25:50;;;;;;;7.87;7.07;;;33.00;79.40;;;;;;5062582;28;20447;-74
2021/06/26 09:28:25;;;;;;;9.60;7.73;;;32.60;78.90;;;;;;5068270;28;20446;-74
2021/06/26 09:30:53;;;;;;;6.70;5.97;;;32.70;80.60;;;;;;5054694;28;20991;-74
2021/06/26 09:33:23;;;;;;;10.10;5.57;;;33.00;72.80;;;;;;5068821;28;20529;-74
2021/06/26 09:36:02;;;;;;;6.30;5.70;;;33.60;69.50;;;;;;5052871;28;20466;-74
2021/06/26 09:38:31;;;;;;;6.00;5.50;;;34.30;67.50;;;;;;5055920;28;20476;-74
2021/06/26 09:40:59;;;;;;;8.30;5.90;;;34.50;63.90;;;;;;5061033;28;20835;-75
2021/06/26 09:43:28;;;;;;;6.90;6.20;;;34.80;59.20;;;;;;5059168;28;20518;-74
2021/06/26 09:46:09;;;;;;;8.47;6.73;;;34.80;62.00;;;;;;5068039;28;20488;-74
2021/06/26 09:48:47;;;;;;;7.40;6.03;;;33.80;61.70;;;;;;5056736;28;20852;-73
2021/06/26 09:51:19;;;;;;;5.63;5.17;;;34.10;59.80;;;;;;5056726;28;20519;-74
2021/06/26 09:53:59;;;;;;;7.97;5.83;;;34.90;61.00;;;;;;5060484;28;20461;-75
2021/06/26 09:56:41;;;;;;;6.30;5.17;;;35.80;58.10;;;;;;5058099;28;20478;-75
2021/06/26 09:59:08;;;;;;;7.00;6.30;;;35.50;56.40;;;;;;5051879;28;20521;-75
2021/06/26 10:01:38;;;;;;;8.80;5.90;;;35.00;57.00;;;;;;5056646;28;20502;-75
2021/06/26 10:04:06;;;;;;;7.17;5.97;;;34.60;57.90;;;;;;5060499;28;20450;-74
2021/06/26 10:06:34;;;;;;;6.10;5.57;;;35.30;56.10;;;;;;5067733;28;20508;-74
2021/06/26 10:09:03;;;;;;;5.40;4.90;;;34.60;54.20;;;;;;5060212;28;20554;-74
2021/06/26 10:11:32;;;;;;;5.10;4.60;;;35.40;52.60;;;;;;5050264;28;20459;-75
2021/06/26 10:14:02;;;;;;;8.47;5.23;;;36.40;52.40;;;;;;5051612;28;20443;-75
2021/06/26 10:16:30;;;;;;;7.93;4.70;;;36.40;50.60;;;;;;5057510;28;20821;-74
2021/06/26 10:18:58;;;;;;;7.20;5.27;;;35.80;49.70;;;;;;5057005;28;20490;-74
2021/06/26 10:21:26;;;;;;;9.53;5.73;;;34.50;51.60;;;;;;5061665;28;20561;-74
2021/06/26 10:23:55;;;;;;;5.93;5.10;;;34.50;53.80;;;;;;5067687;28;20455;-73
2021/06/26 10:26:23;;;;;;;6.77;6.03;;;35.30;50.80;;;;;;5055455;28;20451;-73
2021/06/26 10:28:53;;;;;;;8.70;6.00;;;35.10;50.70;;;;;;5052389;28;20471;-74
2021/06/26 10:31:29;;;;;;;7.47;6.63;;;35.40;51.70;;;;;;5054078;28;20462;-73
2021/06/26 10:34:11;;;;;;;6.33;5.43;;;35.50;51.40;;;;;;5062001;28;20435;-75
2021/06/26 10:36:39;;;;;;;6.50;5.90;;;36.40;49.30;;;;;;5053642;28;20480;-74
2021/06/26 10:39:22;;;;;;;8.20;5.67;;;35.30;50.20;;;;;;5056143;28;21038;-72
2021/06/26 10:42:01;;;;;;;7.20;6.50;;;35.00;50.10;;;;;;5046317;28;20866;-74
2021/06/26 10:44:40;;;;;;;20.00;13.70;;;33.60;52.80;;;;;;5052509;28;20445;-70
2021/06/26 10:47:08;;;;;;;12.87;6.20;;;32.70;52.80;;;;;;5052429;28;20450;-73
2021/06/26 10:49:35;;;;;;;8.50;6.03;;;32.10;53.50;;;;;;5055497;28;20995;-73
2021/06/26 10:52:10;;;;;;;10.77;7.83;;;31.80;54.70;;;;;;5050757;28;20495;-74
2021/06/26 10:54:38;;;;;;;6.60;6.00;;;31.70;56.30;;;;;;5056697;28;20459;-74
2021/06/26 10:57:08;;;;;;;9.27;6.60;;;31.40;57.10;;;;;;5060804;28;20443;-73
2021/06/26 10:59:35;;;;;;;7.97;6.80;;;30.90;58.20;;;;;;5057254;28;20974;-74
2021/06/26 11:02:04;;;;;;;7.80;6.53;;;30.90;57.40;;;;;;5055489;28;20493;-75
2021/06/26 11:04:33;;;;;;;5.37;4.73;;;30.80;57.50;;;;;;5049589;28;20855;-75
2021/06/26 11:07:06;;;;;;;8.03;6.13;;;30.50;57.40;;;;;;5062110;28;20516;-74
2021/06/26 11:09:37;;;;;;;9.93;6.30;;;30.00;57.50;;;;;;5045524;28;20491;-73
2021/06/26 11:12:15;;;;;;;6.67;6.10;;;30.30;59.10;;;;;;5058508;28;20462;-76
2021/06/26 11:14:52;;;;;;;7.30;5.80;;;30.80;59.60;;;;;;5050682;28;20462;-73
2021/06/26 11:17:21;;;;;;;6.50;5.90;;;31.10;58.10;;;;;;5056218;28;20463;-75
2021/06/26 11:19:48;;;;;;;6.90;6.27;;;32.60;58.90;;;;;;5064541;28;20799;-72
2021/06/26 11:22:15;;;;;;;5.80;5.20;;;34.40;54.60;;;;;;5059203;28;20454;-75
2021/06/26 11:24:45;;;;;;;5.57;4.87;;;35.00;52.90;;;;;;5052097;28;20466;-74
2021/06/26 11:27:19;;;;;;;5.37;4.87;;;36.50;54.70;;;;;;5054549;28;20493;-74
2021/06/26 11:29:48;;;;;;;7.63;4.77;;;36.60;48.90;;;;;;5053112;28;20486;-73
2021/06/26 11:32:24;;;;;;;9.90;8.90;;;35.30;50.00;;;;;;5048514;28;20962;-74
2021/06/26 11:34:56;;;;;;;11.00;8.37;;;34.40;52.10;;;;;;5050360;28;20493;-73
2021/06/26 11:37:23;;;;;;;5.70;5.20;;;33.60;52.40;;;;;;5057330;28;20869;-73
2021/06/26 11:39:51;;;;;;;6.07;5.47;;;32.80;53.40;;;;;;5047304;28;20575;-72
2021/06/26 11:42:21;;;;;;;5.37;4.87;;;31.90;53.70;;;;;;5053520;28;20551;-74
2021/06/26 11:44:48;;;;;;;6.43;5.83;;;31.50;56.50;;;;;;5050625;28;20499;-74
2021/06/26 11:47:16;;;;;;;5.00;4.50;;;31.30;56.50;;;;;;5052400;28;20451;-74
2021/06/26 11:49:44;;;;;;;11.23;10.07;;;30.80;55.50;;;;;;5053337;28;20485;-74
2021/06/26 11:52:13;;;;;;;6.70;5.67;;;30.70;57.80;;;;;;5052218;28;20546;-72
2021/06/26 11:54:41;;;;;;;7.53;6.40;;;30.70;57.30;;;;;;5048311;28;20544;-75
2021/06/26 11:57:12;;;;;;;4.90;4.40;;;30.60;58.10;;;;;;5050411;28;20450;-74
2021/06/26 11:59:42;;;;;;;6.00;5.43;;;30.10;57.60;;;;;;5054719;28;20463;-75
2021/06/26 12:02:10;;;;;;;5.57;5.07;;;29.90;59.10;;;;;;5055557;28;20867;-74
2021/06/26 12:04:38;;;;;;;8.20;7.40;;;30.00;58.80;;;;;;5048759;28;20874;-74
2021/06/26 12:07:07;;;;;;;7.27;6.33;;;29.90;58.90;;;;;;5040262;28;20450;-74
2021/06/26 12:09:35;;;;;;;7.23;4.60;;;29.70;59.10;;;;;;5052337;28;20878;-75
2021/06/26 12:12:02;;;;;;;6.20;5.43;;;29.70;61.10;;;;;;5046735;28;20601;-72
2021/06/26 12:14:31;;;;;;;5.10;4.57;;;29.80;61.30;;;;;;5050091;28;20455;-74
2021/06/26 12:17:12;;;;;;;10.57;6.70;;;30.00;59.30;;;;;;5044020;28;20540;-76
2021/06/26 12:19:40;;;;;;;4.93;4.17;;;30.00;60.00;;;;;;5052303;28;20518;-74
2021/06/26 12:22:07;;;;;;;5.77;5.27;;;29.80;59.60;;;;;;5050974;28;20472;-74
2021/06/26 12:24:38;;;;;;;6.60;5.90;;;29.70;62.10;;;;;;5050523;28;20584;-74
2021/06/26 12:27:10;;;;;;;7.10;4.93;;;29.70;62.30;;;;;;5044190;28;20443;-74
2021/06/26 12:29:39;;;;;;;6.57;4.27;;;29.90;62.20;;;;;;5052146;28;20479;-75
2021/06/26 12:32:09;;;;;;;5.80;4.67;;;29.80;61.70;;;;;;5055443;28;20475;-75
2021/06/26 12:34:54;;;;;;;6.63;5.90;;;29.40;62.80;;;;;;5054211;28;20885;-75
2021/06/26 12:37:33;;;;;;;6.07;5.47;;;29.20;63.90;;;;;;5051696;28;20851;-74
2021/06/26 12:40:13;;;;;;;6.77;5.47;;;29.50;65.30;;;;;;5045476;28;20486;-75
2021/06/26 12:42:54;;;;;;;6.20;5.60;;;29.60;63.90;;;;;;5050135;28;21195;-73